Time;durP1;ratioP1;P1;durP2;ratioP2;P2;SDS_P1;SDS_P2;PMS_P1;PMS_P2;Temp;Humidity;BMP_temperature;BMP_pressure;BME280_temperature;BME280_humidity;BME280_pressure;Samples;Min_cycle;Max_cycle;Signal;HPM_P1;HPM_P2
2021/10/04 00:01:30;;;;;;;8.70;6.97;;;19.10;76.30;;;;;;4899179;29;20046;-69
2021/10/04 00:03:56;;;;;;;7.80;6.50;;;19.10;76.10;;;;;;4897357;29;20029;-69
2021/10/04 00:06:22;;;;;;;9.68;6.38;;;19.10;76.70;;;;;;4897547;29;20091;-68
2021/10/04 00:08:47;;;;;;;10.25;6.60;;;19.10;76.90;;;;;;4897222;29;20032;-68
2021/10/04 00:11:13;;;;;;;8.88;6.57;;;19.00;77.20;;;;;;4898830;29;20135;-67
2021/10/04 00:13:39;;;;;;;7.43;6.10;;;19.00;77.40;;;;;;4896845;29;20047;-67
2021/10/04 00:16:05;;;;;;;7.15;6.00;;;19.10;77.60;;;;;;4899958;29;20040;-67
2021/10/04 00:18:30;;;;;;;7.22;5.32;;;19.10;78.00;;;;;;4897978;29;20040;-67
2021/10/04 00:20:56;;;;;;;6.55;5.43;;;19.10;78.20;;;;;;4898669;29;20164;-68
2021/10/04 00:23:22;;;;;;;7.20;4.97;;;19.10;78.30;;;;;;4896357;29;20043;-69
2021/10/04 00:25:48;;;;;;;8.32;5.68;;;19.10;78.50;;;;;;4899962;29;20524;-69
2021/10/04 00:28:13;;;;;;;6.40;5.35;;;19.10;78.40;;;;;;4901050;29;20036;-67
2021/10/04 00:30:40;;;;;;;6.97;5.38;;;19.10;78.20;;;;;;4896576;29;20035;-67
2021/10/04 00:33:05;;;;;;;6.15;4.95;;;19.10;78.00;;;;;;4898362;29;20040;-67
2021/10/04 00:35:31;;;;;;;5.95;4.80;;;19.10;78.30;;;;;;4895906;29;20037;-67
2021/10/04 00:37:57;;;;;;;5.95;4.78;;;19.10;78.40;;;;;;4895618;29;20039;-67
2021/10/04 00:40:27;;;;;;;5.88;5.07;;;19.10;78.50;;;;;;4913416;29;20733;-67
2021/10/04 00:42:53;;;;;;;6.18;4.88;;;19.10;78.30;;;;;;4898752;29;20044;-67
2021/10/04 00:45:20;;;;;;;6.43;4.40;;;19.10;78.60;;;;;;4910482;29;20091;-67
2021/10/04 00:47:46;;;;;;;7.20;4.95;;;19.00;78.60;;;;;;4913636;29;20037;-67
2021/10/04 00:50:13;;;;;;;4.82;3.85;;;19.00;78.80;;;;;;4911905;29;20136;-67
2021/10/04 00:52:39;;;;;;;4.45;3.47;;;19.00;78.80;;;;;;4900308;29;20044;-67
2021/10/04 00:55:07;;;;;;;3.75;3.25;;;19.10;78.90;;;;;;4897642;29;20039;-67
2021/10/04 00:57:33;;;;;;;4.60;3.30;;;19.10;78.80;;;;;;4898018;29;20052;-69
2021/10/04 00:59:59;;;;;;;4.03;2.80;;;19.10;78.50;;;;;;4899091;29;20033;-69
2021/10/04 01:02:24;;;;;;;4.65;3.17;;;19.00;78.50;;;;;;4895025;29;20079;-69
2021/10/04 01:04:50;;;;;;;4.07;2.60;;;19.10;78.60;;;;;;4898228;29;20837;-69
2021/10/04 01:07:16;;;;;;;4.03;3.00;;;19.10;78.50;;;;;;4897352;29;20662;-69
2021/10/04 01:09:42;;;;;;;3.03;2.22;;;19.10;78.50;;;;;;4910661;29;20047;-69
2021/10/04 01:12:08;;;;;;;2.95;2.42;;;19.00;78.20;;;;;;4895614;29;20037;-69
2021/10/04 01:14:34;;;;;;;2.85;2.45;;;19.00;78.50;;;;;;4896662;29;20048;-68
2021/10/04 01:17:00;;;;;;;2.33;2.13;;;19.00;78.70;;;;;;4897905;29;20075;-69
2021/10/04 01:19:26;;;;;;;3.90;2.00;;;19.00;78.80;;;;;;4896335;29;20131;-69
2021/10/04 01:21:51;;;;;;;2.22;2.00;;;18.90;79.00;;;;;;4896295;29;20111;-68
2021/10/04 01:24:18;;;;;;;2.95;1.98;;;18.90;79.20;;;;;;4897667;29;20068;-69
2021/10/04 01:26:44;;;;;;;1.67;1.48;;;18.90;79.60;;;;;;4898450;29;20806;-69
2021/10/04 01:29:10;;;;;;;2.00;1.80;;;18.90;79.60;;;;;;4896335;29;20043;-69
2021/10/04 01:31:36;;;;;;;1.92;1.67;;;18.90;79.70;;;;;;4898617;29;20032;-69
2021/10/04 01:34:04;;;;;;;2.95;1.67;;;18.80;79.40;;;;;;4896986;29;20042;-69
2021/10/04 01:36:31;;;;;;;1.88;1.40;;;18.80;80.50;;;;;;4910542;29;20036;-69
2021/10/04 01:38:58;;;;;;;2.10;1.77;;;18.70;79.90;;;;;;4894381;29;20086;-69
2021/10/04 01:41:24;;;;;;;1.70;1.60;;;18.70;80.50;;;;;;4897930;29;20039;-68
2021/10/04 01:43:51;;;;;;;2.17;1.50;;;18.70;80.90;;;;;;4896853;29;20504;-68
2021/10/04 01:46:18;;;;;;;1.98;1.48;;;18.70;81.00;;;;;;4909421;29;20652;-68
2021/10/04 01:48:44;;;;;;;1.35;1.25;;;18.70;80.80;;;;;;4898091;29;20039;-70
2021/10/04 01:51:10;;;;;;;1.25;1.10;;;18.60;80.70;;;;;;4897094;29;20548;-68
2021/10/04 01:53:36;;;;;;;1.10;1.00;;;18.60;80.80;;;;;;4896345;29;20047;-68
2021/10/04 01:56:01;;;;;;;2.08;1.23;;;18.50;80.30;;;;;;4895658;29;20127;-68
2021/10/04 01:58:29;;;;;;;1.20;0.85;;;18.50;80.80;;;;;;4896435;29;20044;-68
2021/10/04 02:00:55;;;;;;;1.20;1.10;;;18.50;80.70;;;;;;4896697;29;20055;-68
2021/10/04 02:03:22;;;;;;;2.25;0.90;;;18.40;80.60;;;;;;4897489;29;20458;-69
2021/10/04 02:05:48;;;;;;;0.80;0.80;;;18.40;80.40;;;;;;4894784;29;20059;-68
2021/10/04 02:08:13;;;;;;;1.00;0.70;;;18.40;81.10;;;;;;4910324;29;20671;-68
2021/10/04 02:10:41;;;;;;;0.93;0.70;;;18.40;81.40;;;;;;4910443;29;20046;-68
2021/10/04 02:13:08;;;;;;;0.90;0.90;;;18.30;81.80;;;;;;4894292;29;20143;-68
2021/10/04 02:15:36;;;;;;;1.00;0.90;;;18.30;82.10;;;;;;4910652;29;20036;-68
2021/10/04 02:18:02;;;;;;;2.20;0.77;;;18.30;82.50;;;;;;4896232;29;20563;-68
2021/10/04 02:20:31;;;;;;;4.40;1.20;;;18.30;82.70;;;;;;4894796;29;20115;-68
2021/10/04 02:23:05;;;;;;;3.90;1.00;;;18.20;82.60;;;;;;4894921;29;20543;-68
2021/10/04 02:25:36;;;;;;;0.68;0.68;;;18.30;81.80;;;;;;4897371;29;20056;-68
2021/10/04 02:28:03;;;;;;;1.20;1.10;;;18.20;81.60;;;;;;4892876;29;20696;-68
2021/10/04 02:30:28;;;;;;;0.90;0.85;;;18.20;81.70;;;;;;4897309;29;20138;-66
2021/10/04 02:32:54;;;;;;;1.17;0.90;;;18.10;81.90;;;;;;4909916;29;20067;-66
2021/10/04 02:35:22;;;;;;;0.80;0.80;;;18.10;81.60;;;;;;4896035;29;20051;-66
2021/10/04 02:37:51;;;;;;;0.90;0.90;;;18.10;81.00;;;;;;4896886;29;20066;-66
2021/10/04 02:40:18;;;;;;;0.93;0.73;;;18.10;81.50;;;;;;4895423;29;20048;-66
2021/10/04 02:42:44;;;;;;;4.03;1.67;;;18.00;81.90;;;;;;4895450;29;20039;-66
2021/10/04 02:45:12;;;;;;;1.08;0.63;;;18.00;81.90;;;;;;4897116;29;20036;-67
2021/10/04 02:47:38;;;;;;;1.10;0.65;;;18.00;82.00;;;;;;4892953;29;20059;-66
2021/10/04 02:50:07;;;;;;;2.03;0.80;;;18.00;81.60;;;;;;4910336;29;20028;-66
2021/10/04 02:52:33;;;;;;;2.10;1.13;;;17.90;81.00;;;;;;4892658;29;20040;-66
2021/10/04 02:54:58;;;;;;;0.60;0.60;;;17.80;80.30;;;;;;4910241;29;20036;-66
2021/10/04 02:57:24;;;;;;;1.70;1.00;;;17.80;80.00;;;;;;4894495;29;20149;-67
2021/10/04 02:59:50;;;;;;;0.60;0.60;;;17.70;80.40;;;;;;4897133;29;20039;-67
2021/10/04 03:02:15;;;;;;;0.77;0.70;;;17.70;80.60;;;;;;4896703;29;20097;-66
2021/10/04 03:04:41;;;;;;;0.50;0.50;;;17.60;80.60;;;;;;4908510;29;20048;-66
2021/10/04 03:07:07;;;;;;;0.70;0.50;;;17.60;80.80;;;;;;4896468;29;20032;-68
2021/10/04 03:09:32;;;;;;;0.20;0.20;;;17.60;80.60;;;;;;4893913;29;20039;-68
2021/10/04 03:11:58;;;;;;;0.70;0.50;;;17.50;80.50;;;;;;4895250;29;20032;-68
2021/10/04 03:14:24;;;;;;;0.70;0.50;;;17.50;80.70;;;;;;4895666;29;20025;-68
2021/10/04 03:16:51;;;;;;;0.38;0.30;;;17.50;80.30;;;;;;4909548;29;20820;-68
2021/10/04 03:19:17;;;;;;;0.40;0.20;;;17.40;80.30;;;;;;4895709;29;20044;-68
2021/10/04 03:21:43;;;;;;;0.52;0.22;;;17.40;78.80;;;;;;4894965;29;20880;-68
2021/10/04 03:24:10;;;;;;;1.75;0.25;;;17.40;77.60;;;;;;4894373;29;20043;-69
2021/10/04 03:26:36;;;;;;;0.47;0.47;;;17.30;77.60;;;;;;4893108;29;20068;-69
2021/10/04 03:29:02;;;;;;;0.15;0.13;;;17.30;78.10;;;;;;4894319;29;20040;-68
2021/10/04 03:31:28;;;;;;;0.40;0.20;;;17.30;77.70;;;;;;4897513;29;20703;-68
2021/10/04 03:33:54;;;;;;;3.75;2.80;;;17.30;78.00;;;;;;4893518;29;20037;-68
2021/10/04 03:36:20;;;;;;;1.60;1.30;;;17.20;77.90;;;;;;4899409;29;20131;-68
2021/10/04 03:38:45;;;;;;;1.10;0.75;;;17.20;78.50;;;;;;4897373;29;20040;-68
2021/10/04 03:41:11;;;;;;;0.40;0.40;;;17.20;78.70;;;;;;4909028;29;20512;-68
2021/10/04 03:43:38;;;;;;;1.65;0.70;;;17.20;78.60;;;;;;4903783;29;20039;-68
2021/10/04 03:46:03;;;;;;;0.40;0.40;;;17.20;78.80;;;;;;4903561;29;20028;-67
2021/10/04 03:48:29;;;;;;;0.20;0.20;;;17.20;79.40;;;;;;4901712;29;20032;-66
2021/10/04 03:50:56;;;;;;;0.98;0.20;;;17.20;80.00;;;;;;4911776;29;20408;-66
2021/10/04 03:53:22;;;;;;;0.68;0.20;;;17.20;80.40;;;;;;4898583;29;20052;-66
2021/10/04 03:55:48;;;;;;;0.10;0.10;;;17.20;80.10;;;;;;4898100;29;20033;-66
2021/10/04 03:58:13;;;;;;;0.57;0.30;;;17.20;80.00;;;;;;4897862;29;20076;-66
2021/10/04 04:00:39;;;;;;;0.20;0.20;;;17.20;80.20;;;;;;4900167;29;20595;-68
2021/10/04 04:03:05;;;;;;;0.10;0.10;;;17.20;80.20;;;;;;4899107;29;20060;-68
2021/10/04 04:05:32;;;;;;;0.25;0.20;;;17.10;80.40;;;;;;4898553;29;20040;-68
2021/10/04 04:07:57;;;;;;;2.45;0.30;;;17.10;80.70;;;;;;4896161;29;20119;-68
2021/10/04 04:10:23;;;;;;;0.10;0.10;;;17.10;81.00;;;;;;4898363;29;20037;-68
2021/10/04 04:12:49;;;;;;;0.20;0.20;;;17.10;80.40;;;;;;4904599;29;20032;-68
2021/10/04 04:15:16;;;;;;;0.82;0.20;;;17.10;80.60;;;;;;4904230;29;20616;-68
2021/10/04 04:17:42;;;;;;;0.20;0.20;;;17.10;80.60;;;;;;4905293;29;20039;-66
2021/10/04 04:20:09;;;;;;;0.30;0.30;;;17.10;80.50;;;;;;4919957;29;20127;-66
2021/10/04 04:22:35;;;;;;;0.17;0.17;;;17.00;80.30;;;;;;4902778;29;20538;-67
2021/10/04 04:25:02;;;;;;;0.13;0.13;;;17.00;80.50;;;;;;4909501;29;20445;-66
2021/10/04 04:27:27;;;;;;;0.20;0.20;;;17.00;80.50;;;;;;4904333;29;20050;-66
2021/10/04 04:29:53;;;;;;;0.20;0.20;;;17.00;80.60;;;;;;4897124;29;20028;-67
2021/10/04 04:32:19;;;;;;;0.10;0.10;;;17.00;80.10;;;;;;4909051;29;20035;-66
2021/10/04 04:34:45;;;;;;;0.30;0.30;;;17.00;80.20;;;;;;4909107;29;20540;-68
2021/10/04 04:37:11;;;;;;;0.13;0.10;;;17.00;80.30;;;;;;4896949;29;20034;-68
2021/10/04 04:39:36;;;;;;;1.55;0.20;;;16.90;80.30;;;;;;4896455;29;20852;-68
2021/10/04 04:42:04;;;;;;;0.85;0.20;;;16.90;80.20;;;;;;4908468;29;20071;-67
2021/10/04 04:44:30;;;;;;;0.50;0.28;;;16.90;80.40;;;;;;4908181;29;20116;-68
2021/10/04 04:46:56;;;;;;;0.70;0.10;;;16.90;80.10;;;;;;4914879;29;20042;-67
2021/10/04 04:49:26;;;;;;;0.10;0.10;;;16.80;80.40;;;;;;4908466;29;20104;-68
2021/10/04 04:51:57;;;;;;;0.10;0.10;;;16.80;80.80;;;;;;4921190;29;20196;-68
2021/10/04 04:54:24;;;;;;;0.15;0.15;;;16.80;80.60;;;;;;4906425;29;20040;-68
2021/10/04 04:56:53;;;;;;;0.10;0.10;;;16.80;80.30;;;;;;4919315;29;20040;-68
2021/10/04 04:59:19;;;;;;;0.10;0.10;;;16.80;80.50;;;;;;4913307;29;20124;-68
2021/10/04 05:01:45;;;;;;;1.35;0.30;;;16.80;80.80;;;;;;4907892;29;20461;-67
2021/10/04 05:04:11;;;;;;;0.88;0.20;;;16.80;80.80;;;;;;4920774;29;20044;-68
2021/10/04 05:06:37;;;;;;;0.40;0.20;;;16.80;80.10;;;;;;4907169;29;20040;-67
2021/10/04 05:09:03;;;;;;;0.30;0.30;;;16.80;80.00;;;;;;4905895;29;20040;-68
2021/10/04 05:11:29;;;;;;;0.13;0.13;;;16.80;80.00;;;;;;4901908;29;20062;-68
2021/10/04 05:13:56;;;;;;;0.25;0.25;;;16.80;80.30;;;;;;4912736;29;20036;-68
2021/10/04 05:16:21;;;;;;;3.10;0.30;;;16.80;80.40;;;;;;4907109;29;20051;-67
2021/10/04 05:18:47;;;;;;;0.30;0.30;;;16.70;80.20;;;;;;4905491;29;20173;-66
2021/10/04 05:21:13;;;;;;;0.10;0.10;;;16.70;80.60;;;;;;4906495;29;20509;-66
2021/10/04 05:23:39;;;;;;;0.25;0.22;;;16.70;80.70;;;;;;4907890;29;20047;-66
2021/10/04 05:26:05;;;;;;;1.73;0.20;;;16.70;80.40;;;;;;4907354;29;20051;-66
2021/10/04 05:28:31;;;;;;;0.38;0.20;;;16.60;81.00;;;;;;4902865;29;20033;-66
2021/10/04 05:30:57;;;;;;;0.13;0.13;;;16.60;80.80;;;;;;4895802;29;20753;-66
2021/10/04 05:33:22;;;;;;;0.20;0.20;;;16.60;81.20;;;;;;4898266;29;20036;-66
2021/10/04 05:35:49;;;;;;;0.20;0.20;;;16.60;81.30;;;;;;4896057;29;20033;-66
2021/10/04 05:38:15;;;;;;;0.25;0.20;;;16.60;81.10;;;;;;4903907;29;20038;-66
2021/10/04 05:40:40;;;;;;;0.20;0.20;;;16.60;81.30;;;;;;4894859;29;20754;-66
2021/10/04 05:43:06;;;;;;;0.22;0.22;;;16.60;81.60;;;;;;4895673;29;20155;-66
2021/10/04 05:45:32;;;;;;;0.25;0.25;;;16.50;81.30;;;;;;4906825;29;20044;-66
2021/10/04 05:47:58;;;;;;;0.90;0.30;;;16.50;81.50;;;;;;4914361;29;20043;-66
2021/10/04 05:50:25;;;;;;;0.57;0.30;;;16.50;81.70;;;;;;4895896;29;20481;-66
2021/10/04 05:52:51;;;;;;;0.60;0.20;;;16.50;81.80;;;;;;4901647;29;20044;-66
2021/10/04 05:55:17;;;;;;;0.30;0.30;;;16.40;81.60;;;;;;4897883;29;20040;-66
2021/10/04 05:57:44;;;;;;;0.10;0.10;;;16.40;81.70;;;;;;4903299;29;20036;-66
2021/10/04 06:00:12;;;;;;;0.13;0.10;;;16.40;82.00;;;;;;4910046;29;20039;-65
2021/10/04 06:02:38;;;;;;;0.70;0.20;;;16.40;82.60;;;;;;4902653;29;20060;-66
2021/10/04 06:05:06;;;;;;;0.40;0.35;;;16.40;82.70;;;;;;4908860;29;20028;-66
2021/10/04 06:07:31;;;;;;;0.70;0.30;;;16.40;82.50;;;;;;4907961;29;20043;-66
2021/10/04 06:09:57;;;;;;;4.10;0.30;;;16.40;82.60;;;;;;4910603;29;20044;-66
2021/10/04 06:12:29;;;;;;;0.45;0.30;;;16.40;82.40;;;;;;4899415;29;20123;-66
2021/10/04 06:14:59;;;;;;;0.63;0.32;;;16.40;82.70;;;;;;4916216;29;20035;-66
2021/10/04 06:17:26;;;;;;;0.30;0.30;;;16.40;82.30;;;;;;4906454;29;20043;-66
2021/10/04 06:19:53;;;;;;;1.95;0.40;;;16.40;82.00;;;;;;4897123;29;20039;-66
2021/10/04 06:22:20;;;;;;;0.30;0.30;;;16.40;81.80;;;;;;4905869;29;20036;-66
2021/10/04 06:24:46;;;;;;;0.38;0.38;;;16.50;81.90;;;;;;4902704;29;20047;-66
2021/10/04 06:27:12;;;;;;;0.30;0.30;;;16.40;82.40;;;;;;4917043;28;20044;-66
2021/10/04 06:29:38;;;;;;;0.40;0.40;;;16.40;82.50;;;;;;4897594;29;20039;-66
2021/10/04 06:32:05;;;;;;;1.92;0.35;;;16.40;82.70;;;;;;4916815;29;20092;-66
2021/10/04 06:34:31;;;;;;;1.35;0.57;;;16.40;82.50;;;;;;4897036;29;20421;-66
2021/10/04 06:36:57;;;;;;;0.55;0.30;;;16.50;82.00;;;;;;4899201;29;20115;-66
2021/10/04 06:39:22;;;;;;;0.30;0.30;;;16.50;82.20;;;;;;4904659;29;20064;-66
2021/10/04 06:41:48;;;;;;;0.25;0.25;;;16.50;82.40;;;;;;4900243;29;20103;-66
2021/10/04 06:44:14;;;;;;;0.20;0.20;;;16.50;82.70;;;;;;4899829;29;20075;-66
2021/10/04 06:46:40;;;;;;;0.35;0.22;;;16.50;81.50;;;;;;4902821;29;20063;-66
2021/10/04 06:49:06;;;;;;;0.73;0.40;;;16.50;81.60;;;;;;4894040;29;20122;-66
2021/10/04 06:51:32;;;;;;;0.55;0.20;;;16.50;81.70;;;;;;4898764;29;20687;-66
2021/10/04 06:53:58;;;;;;;0.60;0.40;;;16.50;81.80;;;;;;4901559;29;20044;-66
2021/10/04 06:56:24;;;;;;;0.30;0.22;;;16.50;82.00;;;;;;4901927;29;20068;-66
2021/10/04 06:58:50;;;;;;;0.30;0.30;;;16.50;81.90;;;;;;4909483;29;20048;-66
2021/10/04 07:01:16;;;;;;;0.20;0.20;;;16.50;81.90;;;;;;4906032;29;20139;-66
2021/10/04 07:03:42;;;;;;;5.07;1.10;;;16.50;82.00;;;;;;4905173;29;20116;-66
2021/10/04 07:06:08;;;;;;;1.73;0.68;;;16.60;81.80;;;;;;4897234;29;20028;-66
2021/10/04 07:08:34;;;;;;;1.92;0.55;;;16.60;81.20;;;;;;4899422;29;20877;-67
2021/10/04 07:11:01;;;;;;;0.80;0.30;;;16.60;81.40;;;;;;4906773;29;20152;-66
2021/10/04 07:13:27;;;;;;;1.73;0.47;;;16.70;81.90;;;;;;4907472;29;20078;-66
2021/10/04 07:15:53;;;;;;;2.50;0.80;;;16.70;81.10;;;;;;4904223;29;20033;-66
2021/10/04 07:18:19;;;;;;;4.60;1.60;;;16.80;80.90;;;;;;4904272;29;20075;-66
2021/10/04 07:20:45;;;;;;;5.97;1.50;;;16.80;80.20;;;;;;4900394;29;20036;-65
2021/10/04 07:23:11;;;;;;;1.40;0.85;;;16.80;80.20;;;;;;4904005;29;20033;-66
2021/10/04 07:25:37;;;;;;;6.95;1.10;;;16.90;80.40;;;;;;4899537;29;20031;-66
2021/10/04 07:28:04;;;;;;;4.32;1.00;;;17.00;80.20;;;;;;4899574;29;20557;-66
2021/10/04 07:30:30;;;;;;;2.15;0.93;;;17.00;79.60;;;;;;4907759;29;20059;-66
2021/10/04 07:32:56;;;;;;;2.17;0.30;;;17.00;79.40;;;;;;4908094;29;20078;-68
2021/10/04 07:35:23;;;;;;;0.95;0.80;;;17.00;80.10;;;;;;4919060;29;20037;-68
2021/10/04 07:37:49;;;;;;;2.05;1.20;;;17.00;79.90;;;;;;4912529;29;20480;-68
2021/10/04 07:40:15;;;;;;;2.40;0.95;;;17.10;79.10;;;;;;4907462;29;20052;-68
2021/10/04 07:42:42;;;;;;;1.45;0.85;;;17.00;79.10;;;;;;4910087;29;20036;-66
2021/10/04 07:45:10;;;;;;;2.08;0.90;;;17.00;79.00;;;;;;4903341;29;20051;-66
2021/10/04 07:47:36;;;;;;;6.28;3.13;;;17.00;79.60;;;;;;4900293;29;20099;-66
2021/10/04 07:50:06;;;;;;;8.25;3.97;;;17.10;78.30;;;;;;4906831;29;20114;-66
2021/10/04 07:52:32;;;;;;;3.60;1.70;;;17.20;77.60;;;;;;4915570;29;20068;-66
2021/10/04 07:54:59;;;;;;;2.85;1.13;;;17.20;76.70;;;;;;4896221;29;20136;-65
2021/10/04 07:57:25;;;;;;;2.17;0.85;;;17.20;76.60;;;;;;4910810;29;20486;-65
2021/10/04 07:59:51;;;;;;;4.45;1.83;;;17.30;75.90;;;;;;4898835;29;20040;-65
2021/10/04 08:02:17;;;;;;;6.68;2.92;;;17.30;75.30;;;;;;4903392;29;20090;-65
2021/10/04 08:04:43;;;;;;;3.72;2.33;;;17.30;75.50;;;;;;4905305;29;20047;-66
2021/10/04 08:07:09;;;;;;;6.15;2.92;;;17.30;76.30;;;;;;4899758;29;20040;-65
2021/10/04 08:09:35;;;;;;;4.93;1.63;;;17.30;76.40;;;;;;4921705;29;20046;-66
2021/10/04 08:12:01;;;;;;;7.43;2.10;;;17.30;77.20;;;;;;4905250;29;20044;-65
2021/10/04 08:14:27;;;;;;;3.05;1.77;;;17.30;77.40;;;;;;4907428;29;20063;-72
2021/10/04 08:16:53;;;;;;;4.22;1.23;;;17.30;78.00;;;;;;4910603;29;20056;-67
2021/10/04 08:19:19;;;;;;;4.35;1.08;;;17.30;76.90;;;;;;4911491;29;20550;-67
2021/10/04 08:21:45;;;;;;;6.30;0.98;;;17.20;77.20;;;;;;4899389;29;20047;-64
2021/10/04 08:24:11;;;;;;;1.95;0.80;;;17.20;77.20;;;;;;4927341;29;20039;-65
2021/10/04 08:26:37;;;;;;;1.65;0.70;;;17.20;77.40;;;;;;4909933;29;20606;-64
2021/10/04 08:29:03;;;;;;;6.07;1.55;;;17.20;78.00;;;;;;4901561;29;20037;-65
2021/10/04 08:31:32;;;;;;;5.18;1.85;;;17.20;76.30;;;;;;4906065;29;20083;-63
2021/10/04 08:34:01;;;;;;;4.90;1.80;;;17.20;76.60;;;;;;4912920;29;20080;-64
2021/10/04 08:36:27;;;;;;;2.05;0.93;;;17.20;76.40;;;;;;4896852;29;20110;-75
2021/10/04 08:38:53;;;;;;;1.65;0.80;;;17.20;76.50;;;;;;4899528;29;20051;-66
2021/10/04 08:41:19;;;;;;;1.10;0.77;;;17.20;76.50;;;;;;4905886;29;20043;-68
2021/10/04 08:43:48;;;;;;;4.55;1.42;;;17.20;76.80;;;;;;4906459;29;20040;-65
2021/10/04 08:46:14;;;;;;;3.83;1.08;;;17.20;76.30;;;;;;4899019;29;20040;-64
2021/10/04 08:48:40;;;;;;;9.77;3.40;;;17.30;76.00;;;;;;4907940;29;20080;-64
2021/10/04 08:51:08;;;;;;;8.10;2.03;;;17.30;75.50;;;;;;4911244;29;20032;-64
2021/10/04 08:53:35;;;;;;;5.50;1.30;;;17.30;76.40;;;;;;4905048;29;20069;-65
2021/10/04 08:56:00;;;;;;;5.82;1.67;;;17.40;75.80;;;;;;4904258;29;20021;-65
2021/10/04 08:58:26;;;;;;;4.40;1.27;;;17.40;75.70;;;;;;4900071;29;20356;-64
2021/10/04 09:00:52;;;;;;;2.78;1.00;;;17.50;75.40;;;;;;4909221;29;20028;-65
2021/10/04 09:03:17;;;;;;;4.45;1.00;;;17.40;74.80;;;;;;4896532;29;20056;-66
2021/10/04 09:05:47;;;;;;;5.97;1.95;;;17.50;75.00;;;;;;4912079;29;20823;-65
2021/10/04 09:08:15;;;;;;;6.85;2.45;;;17.50;75.20;;;;;;4909595;29;20083;-65
2021/10/04 09:10:43;;;;;;;3.72;1.55;;;17.50;75.10;;;;;;4906940;29;20024;-66
2021/10/04 09:13:11;;;;;;;4.90;1.70;;;17.50;74.70;;;;;;4912216;29;20097;-66
2021/10/04 09:15:46;;;;;;;3.60;1.35;;;17.50;74.30;;;;;;4914227;29;20119;-66
2021/10/04 09:18:31;;;;;;;4.40;1.48;;;17.50;73.80;;;;;;4895326;29;20056;-67
2021/10/04 09:21:09;;;;;;;2.15;1.00;;;17.50;73.80;;;;;;4919198;29;20125;-67
2021/10/04 09:23:51;;;;;;;4.38;1.30;;;17.50;73.90;;;;;;4895975;29;20032;-67
2021/10/04 09:26:26;;;;;;;2.95;1.60;;;17.40;74.40;;;;;;4901506;29;20147;-67
2021/10/04 09:29:03;;;;;;;2.70;0.98;;;17.40;74.70;;;;;;4904642;29;20489;-67
2021/10/04 09:31:32;;;;;;;5.07;1.40;;;17.40;75.50;;;;;;4902947;29;20036;-67
2021/10/04 09:34:10;;;;;;;4.53;1.50;;;17.40;75.30;;;;;;4895856;29;20047;-67
2021/10/04 09:36:43;;;;;;;4.85;1.75;;;17.40;75.50;;;;;;4901699;29;20150;-67
2021/10/04 09:39:30;;;;;;;4.50;1.70;;;17.40;74.60;;;;;;4895555;29;20048;-67
2021/10/04 09:42:06;;;;;;;5.55;1.70;;;17.40;74.80;;;;;;4900229;29;20032;-67
2021/10/04 09:44:44;;;;;;;7.53;3.00;;;17.40;74.50;;;;;;4902095;29;20107;-68
2021/10/04 09:47:17;;;;;;;8.05;3.28;;;17.30;74.10;;;;;;4900149;29;20135;-68
2021/10/04 09:49:53;;;;;;;4.57;2.42;;;17.30;73.60;;;;;;4900610;29;20056;-67
2021/10/04 09:52:31;;;;;;;5.28;2.17;;;17.30;74.70;;;;;;4899429;29;20122;-67
2021/10/04 09:54:57;;;;;;;2.67;1.30;;;17.40;75.90;;;;;;4905311;29;20032;-68
2021/10/04 09:57:22;;;;;;;2.92;1.15;;;17.30;76.90;;;;;;4913690;29;20048;-71
2021/10/04 09:59:48;;;;;;;8.00;4.20;;;17.40;75.80;;;;;;4907508;29;20036;-68
2021/10/04 10:02:17;;;;;;;6.32;2.50;;;17.40;74.80;;;;;;4903975;29;20386;-67
2021/10/04 10:04:46;;;;;;;5.55;2.22;;;17.40;73.80;;;;;;4895060;29;20040;-67
2021/10/04 10:07:12;;;;;;;5.75;2.05;;;17.40;74.60;;;;;;4898122;29;20055;-67
2021/10/04 10:09:39;;;;;;;5.28;2.28;;;17.50;74.80;;;;;;4911262;29;20040;-68
2021/10/04 10:12:07;;;;;;;2.17;1.35;;;17.50;74.80;;;;;;4895141;29;20036;-67
2021/10/04 10:14:44;;;;;;;4.18;1.27;;;17.60;74.80;;;;;;4917015;29;20051;-67
2021/10/04 10:17:16;;;;;;;5.10;1.60;;;17.60;75.40;;;;;;4895601;29;20064;-67
2021/10/04 10:19:44;;;;;;;5.45;3.00;;;17.60;73.30;;;;;;4901040;29;20040;-68
2021/10/04 10:22:15;;;;;;;8.75;2.40;;;17.50;73.00;;;;;;4903754;29;20488;-67
2021/10/04 10:24:41;;;;;;;5.30;2.97;;;17.50;73.60;;;;;;4896739;29;20036;-68
2021/10/04 10:27:07;;;;;;;6.97;3.60;;;17.60;72.70;;;;;;4896830;29;20051;-67
2021/10/04 10:29:35;;;;;;;14.98;5.00;;;17.50;72.10;;;;;;4892257;29;20041;-68
2021/10/04 10:32:00;;;;;;;5.30;2.42;;;17.50;73.50;;;;;;4904787;29;20040;-68
2021/10/04 10:34:31;;;;;;;7.90;3.10;;;17.50;72.80;;;;;;4895529;29;20048;-67
2021/10/04 10:36:59;;;;;;;7.65;3.97;;;17.50;72.80;;;;;;4892342;29;20044;-70
2021/10/04 10:39:58;;;;;;;20.05;9.32;;;17.50;72.90;;;;;;4898262;29;20130;-69
2021/10/04 10:42:26;;;;;;;16.67;8.07;;;17.50;73.00;;;;;;4902961;29;20051;-68
2021/10/04 10:44:57;;;;;;;13.88;6.15;;;17.50;72.80;;;;;;4898137;29;20376;-68
2021/10/04 10:47:50;;;;;;;4.88;3.20;;;17.40;74.10;;;;;;4909385;29;20692;-71
2021/10/04 10:50:35;;;;;;;2.47;1.60;;;17.40;75.90;;;;;;4911534;29;20028;-67
2021/10/04 10:53:04;;;;;;;2.50;1.40;;;17.40;76.00;;;;;;4901725;29;20077;-67
2021/10/04 10:55:34;;;;;;;1.85;1.20;;;17.50;75.20;;;;;;4903710;29;20359;-69
2021/10/04 10:58:06;;;;;;;2.10;1.17;;;17.50;74.70;;;;;;4903383;29;20039;-69
2021/10/04 11:00:32;;;;;;;2.08;1.15;;;17.50;74.70;;;;;;4892307;29;20047;-67
2021/10/04 11:03:13;;;;;;;1.67;1.10;;;17.50;74.20;;;;;;4904421;29;20040;-69
2021/10/04 11:05:38;;;;;;;2.38;1.10;;;17.50;75.00;;;;;;4907301;29;20055;-67
2021/10/04 11:08:17;;;;;;;1.15;0.90;;;17.50;76.20;;;;;;4908696;29;20907;-67
2021/10/04 11:10:49;;;;;;;1.35;0.90;;;17.50;76.00;;;;;;4911900;29;20037;-66
2021/10/04 11:13:15;;;;;;;5.15;2.95;;;17.50;75.50;;;;;;4900193;29;20063;-67
2021/10/04 11:15:42;;;;;;;6.35;2.58;;;17.50;75.40;;;;;;4898238;29;20135;-67
2021/10/04 11:18:11;;;;;;;6.97;3.50;;;17.60;74.80;;;;;;4894910;29;20036;-67
2021/10/04 11:20:37;;;;;;;2.40;1.80;;;17.60;74.50;;;;;;4902246;29;20054;-67
2021/10/04 11:23:04;;;;;;;2.92;1.20;;;17.70;75.40;;;;;;4897734;29;20040;-67
2021/10/04 11:25:41;;;;;;;5.72;3.45;;;17.60;74.40;;;;;;4893774;29;20040;-67
2021/10/04 11:28:08;;;;;;;5.10;2.95;;;17.60;74.40;;;;;;4915538;29;20044;-68
2021/10/04 11:30:56;;;;;;;6.90;3.80;;;17.70;75.30;;;;;;4901174;29;20040;-68
2021/10/04 11:33:24;;;;;;;6.93;3.70;;;17.70;75.40;;;;;;4906926;29;20103;-68
2021/10/04 11:36:09;;;;;;;5.35;2.10;;;17.70;75.50;;;;;;4893031;29;20114;-68
2021/10/04 11:38:47;;;;;;;3.28;1.90;;;17.70;75.50;;;;;;4898934;29;20115;-68
2021/10/04 11:41:13;;;;;;;4.88;1.95;;;17.70;74.90;;;;;;4904605;29;20043;-68
2021/10/04 11:43:44;;;;;;;3.08;1.80;;;17.70;74.10;;;;;;4917689;29;20076;-69
2021/10/04 11:46:14;;;;;;;3.67;1.98;;;17.70;74.30;;;;;;4900109;29;20036;-67
2021/10/04 11:48:40;;;;;;;3.50;2.40;;;17.70;74.70;;;;;;4899964;29;20067;-67
2021/10/04 11:51:09;;;;;;;3.80;2.03;;;17.70;75.40;;;;;;4900235;29;20207;-66
2021/10/04 11:53:39;;;;;;;3.45;2.22;;;17.60;76.10;;;;;;4901880;29;20160;-67
2021/10/04 11:56:07;;;;;;;4.65;2.25;;;17.60;77.10;;;;;;4898905;29;20137;-67
2021/10/04 11:58:34;;;;;;;4.05;2.60;;;17.60;76.90;;;;;;4912570;29;20111;-67
2021/10/04 12:01:01;;;;;;;3.47;1.77;;;17.50;77.00;;;;;;4907552;29;20543;-67
2021/10/04 12:03:29;;;;;;;3.35;1.90;;;17.50;78.50;;;;;;4902530;29;20044;-63
2021/10/04 12:05:56;;;;;;;5.45;1.77;;;17.60;77.80;;;;;;4922015;29;20040;-67
2021/10/04 12:08:23;;;;;;;3.10;1.70;;;17.60;76.80;;;;;;4912052;29;20040;-66
2021/10/04 12:10:57;;;;;;;9.07;2.47;;;17.70;75.80;;;;;;4909763;29;20073;-67
2021/10/04 12:13:27;;;;;;;3.58;1.83;;;17.70;75.50;;;;;;4911656;29;20806;-66
2021/10/04 12:15:55;;;;;;;1.80;1.38;;;17.70;75.60;;;;;;4919993;29;20040;-67
2021/10/04 12:18:29;;;;;;;2.03;1.65;;;17.70;75.20;;;;;;4895528;29;20560;-65
2021/10/04 12:21:21;;;;;;;2.65;1.67;;;17.60;75.50;;;;;;4913886;29;20140;-66
2021/10/04 12:24:11;;;;;;;2.92;2.05;;;17.60;76.00;;;;;;4905144;29;20064;-66
2021/10/04 12:27:02;;;;;;;3.10;1.90;;;17.60;76.00;;;;;;4914582;29;20825;-66
2021/10/04 12:29:27;;;;;;;3.33;1.98;;;17.60;76.10;;;;;;4915320;29;20462;-66
2021/10/04 12:31:57;;;;;;;3.42;1.50;;;17.50;76.60;;;;;;4915892;29;20128;-65
2021/10/04 12:34:25;;;;;;;4.25;1.60;;;17.60;76.50;;;;;;4900780;29;20047;-67
2021/10/04 12:36:52;;;;;;;1.55;1.20;;;17.50;76.60;;;;;;4906552;29;20138;-67
2021/10/04 12:39:19;;;;;;;1.73;1.48;;;17.50;77.40;;;;;;4902790;29;20221;-66
2021/10/04 12:41:47;;;;;;;2.35;1.52;;;17.50;77.90;;;;;;4914451;29;20036;-67
2021/10/04 12:44:16;;;;;;;3.30;1.70;;;17.50;78.50;;;;;;4905564;29;20038;-67
2021/10/04 12:47:07;;;;;;;8.38;2.15;;;17.50;77.30;;;;;;4903740;29;20062;-67
2021/10/04 12:49:34;;;;;;;2.88;2.17;;;17.50;75.20;;;;;;4899743;29;20079;-67